Map

Track Data

SID SEASON NUMBER BASIN SUBBASIN NAME ISO_TIME NATURE LAT LON WMO_WIND WMO_PRES WMO_AGENCY TRACK_TYPE DIST2LAND LANDFALL IFLAG USA_AGENCY USA_ATCF_ID USA_LAT USA_LON USA_RECORD USA_STATUS USA_WIND USA_PRES USA_SSHS USA_R34_NE USA_R34_SE USA_R34_SW USA_R34_NW USA_R50_NE USA_R50_SE USA_R50_SW USA_R50_NW USA_R64_NE USA_R64_SE USA_R64_SW USA_R64_NW USA_POCI USA_ROCI USA_RMW USA_EYE TOKYO_LAT TOKYO_LON TOKYO_GRADE TOKYO_WIND TOKYO_PRES TOKYO_R50_DIR TOKYO_R50_LONG TOKYO_R50_SHORT TOKYO_R30_DIR TOKYO_R30_LONG TOKYO_R30_SHORT TOKYO_LAND CMA_LAT CMA_LON CMA_CAT CMA_WIND CMA_PRES HKO_LAT HKO_LON HKO_CAT HKO_WIND HKO_PRES NEWDELHI_LAT NEWDELHI_LON NEWDELHI_GRADE NEWDELHI_WIND NEWDELHI_PRES NEWDELHI_CI NEWDELHI_DP NEWDELHI_POCI REUNION_LAT REUNION_LON REUNION_TYPE REUNION_WIND REUNION_PRES REUNION_TNUM REUNION_CI REUNION_RMW REUNION_R34_NE REUNION_R34_SE REUNION_R34_SW REUNION_R34_NW REUNION_R50_NE REUNION_R50_SE REUNION_R50_SW REUNION_R50_NW REUNION_R64_NE REUNION_R64_SE REUNION_R64_SW REUNION_R64_NW BOM_LAT BOM_LON BOM_TYPE BOM_WIND BOM_PRES BOM_TNUM BOM_CI BOM_RMW BOM_R34_NE BOM_R34_SE BOM_R34_SW BOM_R34_NW BOM_R50_NE BOM_R50_SE BOM_R50_SW BOM_R50_NW BOM_R64_NE BOM_R64_SE BOM_R64_SW BOM_R64_NW BOM_ROCI BOM_POCI BOM_EYE BOM_POS_METHOD BOM_PRES_METHOD NADI_LAT NADI_LON NADI_CAT NADI_WIND NADI_PRES WELLINGTON_LAT WELLINGTON_LON WELLINGTON_WIND WELLINGTON_PRES DS824_LAT DS824_LON DS824_STAGE DS824_WIND DS824_PRES TD9636_LAT TD9636_LON TD9636_STAGE TD9636_WIND TD9636_PRES TD9635_LAT TD9635_LON TD9635_WIND TD9635_PRES TD9635_ROCI NEUMANN_LAT NEUMANN_LON NEUMANN_CLASS NEUMANN_WIND NEUMANN_PRES MLC_LAT MLC_LON MLC_CLASS MLC_WIND MLC_PRES USA_GUST BOM_GUST BOM_GUST_PER REUNION_GUST REUNION_GUST_PER USA_SEAHGT USA_SEARAD_NE USA_SEARAD_SE USA_SEARAD_SW USA_SEARAD_NW STORM_SPEED STORM_DIR
1928051S13062 1928 11 SI MM NOT_NAMED 1928-02-20 06:00:00 NR -12.7000 62.0000 reunion main 946 946 _____O________ -1 -12.7000 62.0000 99 9.90000 3 47
1928051S13062 1928 11 SI MM NOT_NAMED 1928-02-20 09:00:00 NR -12.6113 62.0955 main 961 961 _____P________ -1 -12.6113 62.0955 99 2 45
1928051S13062 1928 11 SI MM NOT_NAMED 1928-02-20 12:00:00 NR -12.5347 62.1735 main 976 976 _____P________ -1 -12.5347 62.1735 99 2 43
1928051S13062 1928 11 SI MM NOT_NAMED 1928-02-20 15:00:00 NR -12.4821 62.2166 main 976 971 _____P________ -1 -12.4821 62.2166 99 0 273
1928051S13062 1928 11 SI MM NOT_NAMED 1928-02-20 18:00:00 NR -12.5325 62.1261 main 971 956 _____P____O___ -1 -12.4657 62.2076 99 -12.8000 61.8000 4 2 239
1928051S13062 1928 11 SI MM NOT_NAMED 1928-02-20 21:00:00 NR -12.5969 62.0182 main 956 941 _____P____P___ -1 -12.4973 62.1290 99 -12.7960 61.7965 4 3 239
1928051S13062 1928 11 SI MM NOT_NAMED 1928-02-21 00:00:00 NR -12.6853 61.8653 main 941 916 _____P____P___ -1 -12.5890 61.9635 99 -12.8136 61.7345 4 4 241
1928051S13062 1928 11 SI MM NOT_NAMED 1928-02-21 03:00:00 NR -12.8136 61.6242 main 916 882 _____P____P___ -1 -12.7526 61.6932 99 -12.8745 61.5553 4 7 243
1928051S13062 1928 11 SI MM NOT_NAMED 1928-02-21 06:00:00 TS -13.0000 61.2444 reunion main 877 835 _____O___OO___ -1 -13.0000 61.3000 99 9.90000 -13.0000 61.2000 TC 65 -13.0000 61.2000 4 11 245
1928051S13062 1928 11 SI MM NOT_NAMED 1928-02-21 09:00:00 TS -13.2627 60.6489 main 821 767 _____P___PP___ -1 -13.3373 60.7745 99 -13.2256 60.4278 TC 65 -13.2067 60.6339 4 14 245
1928051S13062 1928 11 SI MM NOT_NAMED 1928-02-21 12:00:00 TS -13.5884 59.9412 main 764 703 _____P___OP___ -1 -13.7486 60.1432 99 -13.5000 59.7000 TC 65 -13.4945 59.9200 4 16 243
1928051S13062 1928 11 SI MM NOT_NAMED 1928-02-21 15:00:00 TS -13.9782 59.2102 main 700 643 _____P___PP___ -1 -14.2127 59.4424 99 -13.8622 59.0422 TC 65 -13.8599 59.1460 4 16 239
1928051S13062 1928 11 SI MM NOT_NAMED 1928-02-21 18:00:00 TS -14.4362 58.5029 main 643 581 _____P___OO___ -1 -14.7085 58.7087 99 -14.3000 58.4000 TC 65 -14.3000 58.4000 4 17 235
1928051S13062 1928 11 SI MM NOT_NAMED 1928-02-21 21:00:00 TS -14.9473 57.7846 main 581 515 _____P___PP___ -1 -15.2152 57.9795 99 -14.7627 57.6625 TC 65 -14.8641 57.7117 4 17 231
1928051S13062 1928 11 SI MM NOT_NAMED 1928-02-22 00:00:00 TS -15.5001 57.1236 main 516 457 _____P___OP___ -1 -15.7124 57.2926 99 -15.3000 57.0000 TC 65 -15.4878 57.0783 4 16 226
1928051S13062 1928 11 SI MM NOT_NAMED 1928-02-22 03:00:00 TS -16.0892 56.5766 main 457 414 _____P___PP___ -1 -16.1805 56.6865 99 -15.9948 56.4878 TC 65 -16.0925 56.5554 4 14 219
1928051S13062 1928 11 SI MM NOT_NAMED 1928-02-22 06:00:00 TS -16.6000 56.2000 reunion main 414 387 _____O___OO___ -1 -16.6000 56.2000 99 9.90000 -16.6000 56.2000 TC 65 -16.6000 56.2000 4 9 210
1928051S13062 1928 11 SI MM NOT_NAMED 1928-02-22 09:00:00 TS -16.8866 56.0951 main 387 366 _____P___PP___ -1 -16.8897 56.0156 99 -16.8674 56.1820 TC 65 -16.9028 56.0876 4 5 188
1928051S13062 1928 11 SI MM NOT_NAMED 1928-02-22 12:00:00 TS -17.0812 56.1295 main 366 341 _____P___OP___ -1 -17.1397 55.9483 99 -17.0000 56.3000 TC 65 -17.1041 56.1401 4 4 166
1928051S13062 1928 11 SI MM NOT_NAMED 1928-02-22 15:00:00 TS -17.2682 56.1993 main 341 327 _____P___PP___ -1 -17.3589 55.9679 99 -17.1925 56.3575 TC 65 -17.2533 56.2727 4 4 159
1928051S13062 1928 11 SI MM NOT_NAMED 1928-02-22 18:00:00 TS -17.4520 56.2813 main 317 313 _____P___OO___ -1 -17.5561 56.0439 99 -17.4000 56.4000 TC 65 -17.4000 56.4000 4 3 144
1928051S13062 1928 11 SI MM NOT_NAMED 1928-02-22 21:00:00 TS -17.5464 56.4149 main 313 292 _____P___PP___ -1 -17.7400 56.1459 99 -17.6500 56.4150 TC 65 -17.6015 56.4288 4 3 150
1928051S13062 1928 11 SI MM NOT_NAMED 1928-02-23 00:00:00 TS -17.7229 56.4417 main 292 271 _____P___OP___ -1 -17.9195 56.2431 99 -17.9000 56.4000 TC 65 -17.8123 56.4320 4 4 184
1928051S13062 1928 11 SI MM NOT_NAMED 1928-02-23 03:00:00 TS -17.9432 56.3983 main 271 247 _____P___PP___ -1 -18.1032 56.3048 99 -18.0850 56.3799 TC 65 -18.0420 56.3942 4 5 196
1928051S13062 1928 11 SI MM NOT_NAMED 1928-02-23 06:00:00 TS -18.2000 56.3000 reunion main 247 225 _____O___OO___ -1 -18.3000 56.3000 99 9.90000 -18.3000 56.3000 TC 65 -18.3000 56.3000 4 6 202
1928051S13062 1928 11 SI MM NOT_NAMED 1928-02-23 09:00:00 TS -18.5053 56.1621 main 225 214 _____P___PP___ -1 -18.5831 56.1576 99 -18.6350 56.1301 TC 65 -18.6205 56.1612 4 7 204
1928051S13062 1928 11 SI MM NOT_NAMED 1928-02-23 12:00:00 TS -18.7965 56.0155 main 214 206 _____P___OP___ -1 -18.8795 55.9661 99 -19.0000 55.9000 TC 65 -18.9647 55.9628 4 6 207
1928051S13062 1928 11 SI MM NOT_NAMED 1928-02-23 15:00:00 TS -19.0565 55.8641 main 201 190 _____P___PP___ -1 -19.1795 55.7257 99 -19.3149 55.6724 TC 65 -19.3016 55.7080 4 6 212
1928051S13062 1928 11 SI MM NOT_NAMED 1928-02-23 18:00:00 TS -19.2934 55.6842 main 190 167 _____P___OO___ -1 -19.4737 55.4366 99 -19.6000 55.4000 TC 65 -19.6000 55.4000 4 6 218
1928051S13062 1928 11 SI MM NOT_NAMED 1928-02-23 21:00:00 TS -19.5166 55.4794 main 167 145 _____P___PP___ -1 -19.7525 55.0991 99 -19.8799 55.0800 TC 65 -19.8422 55.0747 4 6 225
1928051S13062 1928 11 SI MM NOT_NAMED 1928-02-24 00:00:00 TS -19.7071 55.2375 main 145 126 _____P___OP___ -1 -20.0062 54.7135 99 -20.1000 54.7000 TC 65 -20.0395 54.6976 4 8 236
1928051S13062 1928 11 SI MM NOT_NAMED 1928-02-24 03:00:00 TS -19.9340 54.8158 main 133 123 _____P___PP___ -1 -20.2253 54.2803 99 -20.2299 54.2799 TC 65 -20.1920 54.2717 4 10 245
1928051S13062 1928 11 SI MM NOT_NAMED 1928-02-24 06:00:00 TS -20.1429 54.2571 reunion main 144 144 _____O___OO___ -1 -20.4000 53.8000 99 9.90000 -20.3000 53.8000 TC 65 -20.3000 53.8000 4 12 252
1928051S13062 1928 11 SI MM NOT_NAMED 1928-02-24 09:00:00 TS -20.3170 53.5724 main 188 188 _____P___PP___ -1 -20.4599 53.2998 99 -20.3650 53.2650 TC 65 -20.3718 53.3129 4 14 259
1928051S13062 1928 11 SI MM NOT_NAMED 1928-02-24 12:00:00 TS -20.4241 52.7435 main 271 271 _____P___OP___ -1 -20.4706 52.7486 99 -20.4000 52.7000 TC 65 -20.4018 52.7817 4 13 265
1928051S13062 1928 11 SI MM NOT_NAMED 1928-02-24 15:00:00 TS -20.4204 52.1789 main 321 295 _____P___PP___ -1 -20.4481 52.1546 99 -20.4071 52.1724 TC 65 -20.4059 52.2098 4 11 271
1928051S13062 1928 11 SI MM NOT_NAMED 1928-02-24 18:00:00 TS -20.4027 51.5751 main 295 233 _____P___OO___ -1 -20.4082 51.5253 99 -20.4000 51.6000 TC 65 -20.4000 51.6000 4 12 272
1928051S13062 1928 11 SI MM NOT_NAMED 1928-02-24 21:00:00 TS -20.3819 50.9157 main 223 162 _____P___PP___ -1 -20.3673 50.8682 99 -20.4001 50.9150 TC 65 -20.3785 50.9639 4 13 272
1928051S13062 1928 11 SI MM NOT_NAMED 1928-02-25 00:00:00 TS -20.3653 50.2279 main 152 94 _____P___OP___ -1 -20.3414 50.1905 99 -20.4000 50.2000 TC 65 -20.3546 50.2933 4 13 271
1928051S13062 1928 11 SI MM NOT_NAMED 1928-02-25 03:00:00 TS -20.3591 49.5499 main 85 30 _____P___PP___ -1 -20.3468 49.4989 99 -20.3771 49.5497 TC 65 -20.3534 49.6011 4 13 268
1928051S13062 1928 11 SI MM NOT_NAMED 1928-02-25 06:00:00 TS -20.4000 48.8667 reunion main 30 0 _____O___OO___ -1 -20.4000 48.8000 99 9.90000 -20.4000 48.9000 TC 65 -20.4000 48.9000 4 13 263
1928051S13062 1928 11 SI MM NOT_NAMED 1928-02-25 09:00:00 TS -20.5083 48.1646 main 0 0 _____P___PP___ -1 -20.5019 48.0671 99 -20.5198 48.2076 TC 65 -20.5034 48.2191 4 14 259
1928051S13062 1928 11 SI MM NOT_NAMED 1928-02-25 12:00:00 TS -20.6659 47.4472 main 0 0 _____P___OP___ -1 -20.6391 47.3123 99 -20.7000 47.5000 TC 65 -20.6585 47.5293 4 14 256
1928051S13062 1928 11 SI MM NOT_NAMED 1928-02-25 15:00:00 TS -20.8504 46.7296 main 0 0 _____P___PP___ -1 -20.8148 46.5495 99 -20.8770 46.8146 TC 65 -20.8595 46.8249 4 11 250
1928051S13062 1928 11 SI MM NOT_NAMED 1928-02-25 18:00:00 TS -21.0562 46.3054 main 0 0 _____P___OO___ -1 -21.0326 45.7925 99 -21.1000 46.1000 TC 65 -21.1000 46.1000 4 10 245
1928051S13062 1928 11 SI MM NOT_NAMED 1928-02-25 21:00:00 TS -21.2571 45.7957 main 0 0 _____P___PP___ -1 -21.2959 45.0552 99 -21.3849 45.3075 TC 65 -21.3734 45.3508 4 15 250
1928051S13062 1928 11 SI MM NOT_NAMED 1928-02-26 00:00:00 TS -21.5592 44.8129 main 0 0 _____P___OP___ -1 -21.6087 44.3514 99 -21.7000 44.5000 TC 65 -21.6708 44.5807 4 21 249
1928051S13062 1928 11 SI MM NOT_NAMED 1928-02-26 03:00:00 TS -21.9847 43.7301 main 0 0 _____P___PP___ -1 -21.9753 43.6950 99 -22.0055 43.7354 TC 65 -21.9828 43.7951 4 18 243
1928051S13062 1928 11 SI MM NOT_NAMED 1928-02-26 06:00:00 TS -22.3667 43.0667 reunion main 15 15 _____O___OO___ -1 -22.4000 43.1000 99 9.90000 -22.3000 43.0000 TC 65 -22.3000 43.0000 4 14 230
1928051S13062 1928 11 SI MM NOT_NAMED 1928-02-26 09:00:00 NR -22.8854 42.5766 main 82 82 _____P________ -1 -22.8854 42.5766 99 TC 4 14 219
1928051S13062 1928 11 SI MM NOT_NAMED 1928-02-26 12:00:00 NR -23.4262 42.1187 main 148 148 _____P________ -1 -23.4262 42.1187 99 4 14 215
1928051S13062 1928 11 SI MM NOT_NAMED 1928-02-26 15:00:00 NR -24.0148 41.7166 main 196 196 _____P________ -1 -24.0148 41.7166 99 4 14 210
1928051S13062 1928 11 SI MM NOT_NAMED 1928-02-26 18:00:00 NR -24.6437 41.3604 main 239 239 _____P________ -1 -24.6437 41.3604 99 14 205
1928051S13062 1928 11 SI MM NOT_NAMED 1928-02-26 21:00:00 NR -25.3048 41.0404 main 292 292 _____P________ -1 -25.3048 41.0404 99 15 202
1928051S13062 1928 11 SI MM NOT_NAMED 1928-02-27 00:00:00 NR -25.9902 40.7469 main 348 348 _____P________ -1 -25.9902 40.7469 99 15 200
1928051S13062 1928 11 SI MM NOT_NAMED 1928-02-27 03:00:00 NR -26.6913 40.4700 main 398 398 _____P________ -1 -26.6913 40.4700 99 15 199
1928051S13062 1928 11 SI MM NOT_NAMED 1928-02-27 06:00:00 NR -27.4000 40.2000 reunion main 464 _____O________ -1 -27.4000 40.2000 99 9.90000 15 199

About IBTrACS Database

This database is a web-friendly format of International Best Track Archive for Climate Stewardship (IBTrACS), a global best track data archive curated by NOAA dating back to 1842.

Updated: 2021-10-08